sensor_id;sensor_type;location;lat;lon;timestamp;P1;durP1;ratioP1;P2;durP2;ratioP2
34924;SDS011;21130;51.728;8.748;2024-02-26T00:01:46;2.33;;;1.58;;
34924;SDS011;21130;51.728;8.748;2024-02-26T00:04:12;2.20;;;1.83;;
34924;SDS011;21130;51.728;8.748;2024-02-26T00:06:39;1.75;;;1.63;;
34924;SDS011;21130;51.728;8.748;2024-02-26T00:15:20;3.05;;;1.80;;
34924;SDS011;21130;51.728;8.748;2024-02-26T00:17:46;2.85;;;1.70;;
34924;SDS011;21130;51.728;8.748;2024-02-26T00:20:13;1.65;;;1.50;;
34924;SDS011;21130;51.728;8.748;2024-02-26T00:22:39;2.90;;;1.52;;
34924;SDS011;21130;51.728;8.748;2024-02-26T00:25:06;1.73;;;1.63;;
34924;SDS011;21130;51.728;8.748;2024-02-26T00:27:32;2.13;;;1.70;;
34924;SDS011;21130;51.728;8.748;2024-02-26T00:29:59;2.15;;;1.50;;
34924;SDS011;21130;51.728;8.748;2024-02-26T00:32:26;2.63;;;1.80;;
34924;SDS011;21130;51.728;8.748;2024-02-26T00:34:53;1.70;;;1.50;;
34924;SDS011;21130;51.728;8.748;2024-02-26T00:37:40;1.83;;;1.50;;
34924;SDS011;21130;51.728;8.748;2024-02-26T00:40:08;2.25;;;1.80;;
34924;SDS011;21130;51.728;8.748;2024-02-26T00:42:35;2.10;;;1.77;;
34924;SDS011;21130;51.728;8.748;2024-02-26T00:45:01;2.30;;;1.80;;
34924;SDS011;21130;51.728;8.748;2024-02-26T00:47:29;2.13;;;1.60;;
34924;SDS011;21130;51.728;8.748;2024-02-26T00:49:55;1.50;;;1.38;;
34924;SDS011;21130;51.728;8.748;2024-02-26T00:52:22;2.33;;;1.45;;
34924;SDS011;21130;51.728;8.748;2024-02-26T00:54:48;2.15;;;1.77;;
34924;SDS011;21130;51.728;8.748;2024-02-26T00:57:15;1.80;;;1.67;;
34924;SDS011;21130;51.728;8.748;2024-02-26T00:59:41;1.77;;;1.67;;
34924;SDS011;21130;51.728;8.748;2024-02-26T01:02:08;2.80;;;1.63;;
34924;SDS011;21130;51.728;8.748;2024-02-26T01:04:35;2.30;;;1.52;;
34924;SDS011;21130;51.728;8.748;2024-02-26T01:07:02;1.67;;;1.58;;
34924;SDS011;21130;51.728;8.748;2024-02-26T01:09:29;3.03;;;1.63;;
34924;SDS011;21130;51.728;8.748;2024-02-26T01:11:55;2.25;;;1.88;;
34924;SDS011;21130;51.728;8.748;2024-02-26T01:14:21;3.13;;;1.55;;
34924;SDS011;21130;51.728;8.748;2024-02-26T01:16:48;3.80;;;1.65;;
34924;SDS011;21130;51.728;8.748;2024-02-26T01:19:16;2.10;;;1.90;;
34924;SDS011;21130;51.728;8.748;2024-02-26T01:21:43;2.10;;;2.00;;
34924;SDS011;21130;51.728;8.748;2024-02-26T01:24:10;2.55;;;1.95;;
34924;SDS011;21130;51.728;8.748;2024-02-26T01:26:36;1.98;;;1.85;;
34924;SDS011;21130;51.728;8.748;2024-02-26T01:29:03;3.63;;;1.95;;
34924;SDS011;21130;51.728;8.748;2024-02-26T01:31:29;1.95;;;1.80;;
34924;SDS011;21130;51.728;8.748;2024-02-26T01:33:56;1.65;;;1.55;;
34924;SDS011;21130;51.728;8.748;2024-02-26T01:36:22;1.65;;;1.52;;
34924;SDS011;21130;51.728;8.748;2024-02-26T01:39:07;1.98;;;1.83;;
34924;SDS011;21130;51.728;8.748;2024-02-26T01:41:51;1.90;;;1.80;;
34924;SDS011;21130;51.728;8.748;2024-02-26T01:44:18;1.30;;;1.20;;
34924;SDS011;21130;51.728;8.748;2024-02-26T01:46:45;2.45;;;1.60;;
34924;SDS011;21130;51.728;8.748;2024-02-26T01:49:11;2.85;;;1.50;;
34924;SDS011;21130;51.728;8.748;2024-02-26T01:51:38;2.05;;;1.50;;
34924;SDS011;21130;51.728;8.748;2024-02-26T01:54:09;1.40;;;1.30;;
34924;SDS011;21130;51.728;8.748;2024-02-26T01:56:35;1.40;;;1.30;;
34924;SDS011;21130;51.728;8.748;2024-02-26T01:59:03;1.52;;;1.42;;
34924;SDS011;21130;51.728;8.748;2024-02-26T02:01:31;1.40;;;1.30;;
34924;SDS011;21130;51.728;8.748;2024-02-26T02:04:00;2.05;;;1.30;;
34924;SDS011;21130;51.728;8.748;2024-02-26T02:06:27;1.55;;;1.23;;
34924;SDS011;21130;51.728;8.748;2024-02-26T02:08:54;1.00;;;1.00;;
34924;SDS011;21130;51.728;8.748;2024-02-26T02:11:21;1.83;;;1.25;;
34924;SDS011;21130;51.728;8.748;2024-02-26T02:13:48;1.52;;;1.00;;
34924;SDS011;21130;51.728;8.748;2024-02-26T02:16:14;1.02;;;0.80;;
34924;SDS011;21130;51.728;8.748;2024-02-26T02:18:42;1.35;;;1.20;;
34924;SDS011;21130;51.728;8.748;2024-02-26T02:21:10;1.88;;;1.20;;
34924;SDS011;21130;51.728;8.748;2024-02-26T02:23:36;0.90;;;0.90;;
34924;SDS011;21130;51.728;8.748;2024-02-26T02:26:03;1.20;;;1.10;;
34924;SDS011;21130;51.728;8.748;2024-02-26T02:28:29;1.10;;;1.10;;
34924;SDS011;21130;51.728;8.748;2024-02-26T02:30:57;1.10;;;1.00;;
34924;SDS011;21130;51.728;8.748;2024-02-26T02:33:23;1.10;;;1.00;;
34924;SDS011;21130;51.728;8.748;2024-02-26T02:35:51;1.08;;;1.00;;
34924;SDS011;21130;51.728;8.748;2024-02-26T02:38:20;0.77;;;0.75;;
34924;SDS011;21130;51.728;8.748;2024-02-26T02:40:48;1.02;;;1.00;;
34924;SDS011;21130;51.728;8.748;2024-02-26T02:43:14;1.73;;;1.05;;
34924;SDS011;21130;51.728;8.748;2024-02-26T02:45:41;1.33;;;0.98;;
34924;SDS011;21130;51.728;8.748;2024-02-26T02:48:07;1.13;;;1.02;;
34924;SDS011;21130;51.728;8.748;2024-02-26T02:50:34;1.27;;;0.73;;
34924;SDS011;21130;51.728;8.748;2024-02-26T02:53:00;1.30;;;1.20;;
34924;SDS011;21130;51.728;8.748;2024-02-26T02:55:28;1.10;;;1.10;;
34924;SDS011;21130;51.728;8.748;2024-02-26T02:57:55;1.00;;;1.00;;
34924;SDS011;21130;51.728;8.748;2024-02-26T03:00:21;0.98;;;0.98;;
34924;SDS011;21130;51.728;8.748;2024-02-26T03:02:48;1.40;;;1.05;;
34924;SDS011;21130;51.728;8.748;2024-02-26T03:05:15;1.15;;;1.00;;
34924;SDS011;21130;51.728;8.748;2024-02-26T03:07:41;1.13;;;0.90;;
34924;SDS011;21130;51.728;8.748;2024-02-26T03:10:08;1.50;;;0.75;;
34924;SDS011;21130;51.728;8.748;2024-02-26T03:12:36;1.40;;;0.98;;
34924;SDS011;21130;51.728;8.748;2024-02-26T03:15:02;1.30;;;1.10;;
34924;SDS011;21130;51.728;8.748;2024-02-26T03:17:29;1.23;;;1.13;;
34924;SDS011;21130;51.728;8.748;2024-02-26T03:19:56;2.28;;;1.10;;
34924;SDS011;21130;51.728;8.748;2024-02-26T03:22:22;1.88;;;1.10;;
34924;SDS011;21130;51.728;8.748;2024-02-26T03:24:49;1.15;;;1.13;;
34924;SDS011;21130;51.728;8.748;2024-02-26T03:27:15;2.28;;;1.33;;
34924;SDS011;21130;51.728;8.748;2024-02-26T03:29:43;1.33;;;1.05;;
34924;SDS011;21130;51.728;8.748;2024-02-26T03:32:09;1.42;;;1.33;;
34924;SDS011;21130;51.728;8.748;2024-02-26T03:34:36;1.65;;;1.20;;
34924;SDS011;21130;51.728;8.748;2024-02-26T03:37:04;2.63;;;1.30;;
34924;SDS011;21130;51.728;8.748;2024-02-26T03:39:30;0.80;;;0.80;;
34924;SDS011;21130;51.728;8.748;2024-02-26T03:41:57;1.48;;;1.38;;
34924;SDS011;21130;51.728;8.748;2024-02-26T03:44:23;1.35;;;1.10;;
34924;SDS011;21130;51.728;8.748;2024-02-26T03:46:53;1.50;;;1.10;;
34924;SDS011;21130;51.728;8.748;2024-02-26T03:49:19;1.80;;;1.05;;
34924;SDS011;21130;51.728;8.748;2024-02-26T03:51:45;1.35;;;1.10;;
34924;SDS011;21130;51.728;8.748;2024-02-26T03:54:12;1.40;;;1.30;;
34924;SDS011;21130;51.728;8.748;2024-02-26T03:56:39;2.53;;;1.10;;
34924;SDS011;21130;51.728;8.748;2024-02-26T03:59:05;0.93;;;0.93;;
34924;SDS011;21130;51.728;8.748;2024-02-26T04:01:32;1.63;;;1.20;;
34924;SDS011;21130;51.728;8.748;2024-02-26T04:03:59;1.20;;;1.10;;
34924;SDS011;21130;51.728;8.748;2024-02-26T04:06:26;1.17;;;1.08;;
34924;SDS011;21130;51.728;8.748;2024-02-26T04:08:52;1.08;;;0.90;;
34924;SDS011;21130;51.728;8.748;2024-02-26T04:11:19;1.33;;;1.00;;
34924;SDS011;21130;51.728;8.748;2024-02-26T04:13:45;1.30;;;1.17;;
34924;SDS011;21130;51.728;8.748;2024-02-26T04:16:14;1.27;;;1.13;;
34924;SDS011;21130;51.728;8.748;2024-02-26T04:18:41;1.25;;;1.15;;
34924;SDS011;21130;51.728;8.748;2024-02-26T04:21:09;1.95;;;1.00;;
34924;SDS011;21130;51.728;8.748;2024-02-26T04:23:36;1.83;;;1.50;;
34924;SDS011;21130;51.728;8.748;2024-02-26T04:26:03;1.33;;;1.15;;
34924;SDS011;21130;51.728;8.748;2024-02-26T04:28:30;2.30;;;1.30;;
34924;SDS011;21130;51.728;8.748;2024-02-26T04:30:56;1.15;;;1.05;;
34924;SDS011;21130;51.728;8.748;2024-02-26T04:33:22;1.17;;;1.05;;
34924;SDS011;21130;51.728;8.748;2024-02-26T04:35:49;1.65;;;1.30;;
34924;SDS011;21130;51.728;8.748;2024-02-26T04:38:17;1.25;;;1.17;;
34924;SDS011;21130;51.728;8.748;2024-02-26T04:40:43;1.27;;;1.10;;
34924;SDS011;21130;51.728;8.748;2024-02-26T04:43:09;1.80;;;1.02;;
34924;SDS011;21130;51.728;8.748;2024-02-26T04:45:36;1.35;;;1.25;;
34924;SDS011;21130;51.728;8.748;2024-02-26T04:48:02;1.30;;;1.20;;
34924;SDS011;21130;51.728;8.748;2024-02-26T04:50:29;1.73;;;1.63;;
34924;SDS011;21130;51.728;8.748;2024-02-26T04:52:55;1.65;;;1.30;;
34924;SDS011;21130;51.728;8.748;2024-02-26T04:55:23;1.65;;;1.45;;
34924;SDS011;21130;51.728;8.748;2024-02-26T04:57:50;1.35;;;1.25;;
34924;SDS011;21130;51.728;8.748;2024-02-26T05:00:16;1.73;;;1.45;;
34924;SDS011;21130;51.728;8.748;2024-02-26T05:02:43;1.98;;;1.33;;
34924;SDS011;21130;51.728;8.748;2024-02-26T05:05:09;1.50;;;1.40;;
34924;SDS011;21130;51.728;8.748;2024-02-26T05:07:39;1.60;;;1.50;;
34924;SDS011;21130;51.728;8.748;2024-02-26T05:10:07;1.55;;;1.33;;
34924;SDS011;21130;51.728;8.748;2024-02-26T05:12:35;2.53;;;1.48;;
34924;SDS011;21130;51.728;8.748;2024-02-26T05:15:01;1.50;;;1.40;;
34924;SDS011;21130;51.728;8.748;2024-02-26T05:17:28;1.60;;;1.45;;
34924;SDS011;21130;51.728;8.748;2024-02-26T05:19:55;1.65;;;1.50;;
34924;SDS011;21130;51.728;8.748;2024-02-26T05:22:21;1.52;;;1.20;;
34924;SDS011;21130;51.728;8.748;2024-02-26T05:24:48;1.85;;;1.30;;
34924;SDS011;21130;51.728;8.748;2024-02-26T05:27:15;1.45;;;1.27;;
34924;SDS011;21130;51.728;8.748;2024-02-26T05:29:42;1.98;;;1.58;;
34924;SDS011;21130;51.728;8.748;2024-02-26T05:32:09;1.60;;;1.35;;
34924;SDS011;21130;51.728;8.748;2024-02-26T05:34:35;2.33;;;1.88;;
34924;SDS011;21130;51.728;8.748;2024-02-26T05:37:02;1.70;;;1.60;;
34924;SDS011;21130;51.728;8.748;2024-02-26T05:39:28;2.65;;;2.03;;
34924;SDS011;21130;51.728;8.748;2024-02-26T05:41:55;1.90;;;1.80;;
34924;SDS011;21130;51.728;8.748;2024-02-26T05:44:22;2.13;;;1.80;;
34924;SDS011;21130;51.728;8.748;2024-02-26T05:46:50;3.65;;;1.70;;
34924;SDS011;21130;51.728;8.748;2024-02-26T05:49:17;2.47;;;2.08;;
34924;SDS011;21130;51.728;8.748;2024-02-26T05:51:43;2.33;;;2.10;;
34924;SDS011;21130;51.728;8.748;2024-02-26T05:54:09;2.38;;;2.00;;
34924;SDS011;21130;51.728;8.748;2024-02-26T05:56:36;2.00;;;1.80;;
34924;SDS011;21130;51.728;8.748;2024-02-26T05:59:02;2.63;;;2.00;;
34924;SDS011;21130;51.728;8.748;2024-02-26T06:01:29;2.20;;;1.90;;
34924;SDS011;21130;51.728;8.748;2024-02-26T06:03:56;3.13;;;1.88;;
34924;SDS011;21130;51.728;8.748;2024-02-26T06:06:23;1.80;;;1.70;;
34924;SDS011;21130;51.728;8.748;2024-02-26T06:08:49;2.08;;;1.83;;
34924;SDS011;21130;51.728;8.748;2024-02-26T06:11:15;2.22;;;1.50;;
34924;SDS011;21130;51.728;8.748;2024-02-26T06:13:42;4.78;;;2.00;;
34924;SDS011;21130;51.728;8.748;2024-02-26T06:16:08;1.83;;;1.65;;
34924;SDS011;21130;51.728;8.748;2024-02-26T06:18:35;1.50;;;1.40;;
34924;SDS011;21130;51.728;8.748;2024-02-26T06:21:02;1.58;;;1.48;;
34924;SDS011;21130;51.728;8.748;2024-02-26T06:23:29;2.78;;;1.40;;
34924;SDS011;21130;51.728;8.748;2024-02-26T06:25:56;1.70;;;1.50;;
34924;SDS011;21130;51.728;8.748;2024-02-26T06:28:22;1.80;;;1.40;;
34924;SDS011;21130;51.728;8.748;2024-02-26T06:30:49;1.77;;;1.58;;
34924;SDS011;21130;51.728;8.748;2024-02-26T06:33:17;2.10;;;1.90;;
34924;SDS011;21130;51.728;8.748;2024-02-26T06:35:43;3.05;;;1.50;;
34924;SDS011;21130;51.728;8.748;2024-02-26T06:38:11;1.63;;;1.50;;
34924;SDS011;21130;51.728;8.748;2024-02-26T06:40:38;2.92;;;1.67;;
34924;SDS011;21130;51.728;8.748;2024-02-26T06:43:05;3.63;;;1.60;;
34924;SDS011;21130;51.728;8.748;2024-02-26T06:45:31;1.63;;;1.52;;
34924;SDS011;21130;51.728;8.748;2024-02-26T06:47:58;1.67;;;1.58;;
34924;SDS011;21130;51.728;8.748;2024-02-26T06:50:24;3.90;;;1.92;;
34924;SDS011;21130;51.728;8.748;2024-02-26T06:52:50;2.17;;;1.40;;
34924;SDS011;21130;51.728;8.748;2024-02-26T06:55:19;1.52;;;1.42;;
34924;SDS011;21130;51.728;8.748;2024-02-26T06:57:46;6.88;;;1.70;;
34924;SDS011;21130;51.728;8.748;2024-02-26T07:00:12;2.20;;;1.38;;
34924;SDS011;21130;51.728;8.748;2024-02-26T07:02:41;2.28;;;1.60;;
34924;SDS011;21130;51.728;8.748;2024-02-26T07:05:08;1.90;;;1.70;;
34924;SDS011;21130;51.728;8.748;2024-02-26T07:07:35;4.25;;;1.60;;
34924;SDS011;21130;51.728;8.748;2024-02-26T07:10:01;1.60;;;1.50;;
34924;SDS011;21130;51.728;8.748;2024-02-26T07:12:32;1.95;;;1.65;;
34924;SDS011;21130;51.728;8.748;2024-02-26T07:14:58;2.45;;;2.00;;
34924;SDS011;21130;51.728;8.748;2024-02-26T07:17:25;2.10;;;1.80;;
34924;SDS011;21130;51.728;8.748;2024-02-26T07:19:51;1.70;;;1.50;;
34924;SDS011;21130;51.728;8.748;2024-02-26T07:22:18;3.00;;;1.63;;
34924;SDS011;21130;51.728;8.748;2024-02-26T07:24:44;2.20;;;1.77;;
34924;SDS011;21130;51.728;8.748;2024-02-26T07:27:11;4.57;;;1.63;;
34924;SDS011;21130;51.728;8.748;2024-02-26T07:29:39;1.70;;;1.60;;
34924;SDS011;21130;51.728;8.748;2024-02-26T07:32:05;2.97;;;1.63;;
34924;SDS011;21130;51.728;8.748;2024-02-26T07:34:32;2.15;;;1.65;;
34924;SDS011;21130;51.728;8.748;2024-02-26T07:36:58;3.30;;;1.80;;
34924;SDS011;21130;51.728;8.748;2024-02-26T07:39:25;2.15;;;1.70;;
34924;SDS011;21130;51.728;8.748;2024-02-26T07:41:51;2.20;;;2.00;;
34924;SDS011;21130;51.728;8.748;2024-02-26T07:44:18;2.28;;;1.90;;
34924;SDS011;21130;51.728;8.748;2024-02-26T07:46:45;1.98;;;1.65;;
34924;SDS011;21130;51.728;8.748;2024-02-26T07:49:12;3.47;;;1.83;;
34924;SDS011;21130;51.728;8.748;2024-02-26T07:51:38;3.13;;;1.90;;
34924;SDS011;21130;51.728;8.748;2024-02-26T07:54:05;1.90;;;1.80;;
34924;SDS011;21130;51.728;8.748;2024-02-26T07:56:31;1.77;;;1.67;;
34924;SDS011;21130;51.728;8.748;2024-02-26T07:58:58;3.92;;;1.95;;
34924;SDS011;21130;51.728;8.748;2024-02-26T08:01:24;2.20;;;2.00;;
34924;SDS011;21130;51.728;8.748;2024-02-26T08:03:53;2.63;;;1.83;;
34924;SDS011;21130;51.728;8.748;2024-02-26T08:06:20;2.13;;;1.88;;
34924;SDS011;21130;51.728;8.748;2024-02-26T08:08:47;1.75;;;1.65;;
34924;SDS011;21130;51.728;8.748;2024-02-26T08:11:14;2.20;;;1.80;;
34924;SDS011;21130;51.728;8.748;2024-02-26T08:13:41;2.95;;;2.15;;
34924;SDS011;21130;51.728;8.748;2024-02-26T08:16:07;2.33;;;2.03;;
34924;SDS011;21130;51.728;8.748;2024-02-26T08:18:34;2.42;;;2.22;;
34924;SDS011;21130;51.728;8.748;2024-02-26T08:21:01;2.67;;;2.20;;
34924;SDS011;21130;51.728;8.748;2024-02-26T08:23:28;2.72;;;2.42;;
34924;SDS011;21130;51.728;8.748;2024-02-26T08:25:56;2.90;;;2.00;;
34924;SDS011;21130;51.728;8.748;2024-02-26T08:28:22;3.50;;;2.72;;
34924;SDS011;21130;51.728;8.748;2024-02-26T08:30:49;3.63;;;3.25;;
34924;SDS011;21130;51.728;8.748;2024-02-26T08:33:16;3.80;;;3.17;;
34924;SDS011;21130;51.728;8.748;2024-02-26T08:35:44;3.05;;;2.63;;
34924;SDS011;21130;51.728;8.748;2024-02-26T08:38:12;2.97;;;2.40;;
34924;SDS011;21130;51.728;8.748;2024-02-26T08:40:38;2.95;;;2.38;;
34924;SDS011;21130;51.728;8.748;2024-02-26T08:43:05;3.47;;;2.28;;
34924;SDS011;21130;51.728;8.748;2024-02-26T08:45:31;2.75;;;2.55;;
34924;SDS011;21130;51.728;8.748;2024-02-26T08:47:58;2.38;;;2.17;;
34924;SDS011;21130;51.728;8.748;2024-02-26T08:50:24;3.05;;;2.63;;
34924;SDS011;21130;51.728;8.748;2024-02-26T08:52:51;3.60;;;2.78;;
34924;SDS011;21130;51.728;8.748;2024-02-26T08:55:19;2.95;;;2.65;;
34924;SDS011;21130;51.728;8.748;2024-02-26T08:57:46;2.95;;;2.60;;
34924;SDS011;21130;51.728;8.748;2024-02-26T09:00:13;3.10;;;2.78;;
34924;SDS011;21130;51.728;8.748;2024-02-26T09:02:42;2.95;;;2.65;;
34924;SDS011;21130;51.728;8.748;2024-02-26T09:05:09;3.10;;;2.72;;
34924;SDS011;21130;51.728;8.748;2024-02-26T09:07:36;3.55;;;2.88;;
34924;SDS011;21130;51.728;8.748;2024-02-26T09:10:02;3.40;;;2.72;;
34924;SDS011;21130;51.728;8.748;2024-02-26T09:12:31;3.30;;;2.75;;
34924;SDS011;21130;51.728;8.748;2024-02-26T09:14:57;3.40;;;2.83;;
34924;SDS011;21130;51.728;8.748;2024-02-26T09:17:24;3.00;;;2.65;;
34924;SDS011;21130;51.728;8.748;2024-02-26T09:19:50;2.95;;;2.60;;
34924;SDS011;21130;51.728;8.748;2024-02-26T09:22:16;3.45;;;2.70;;
34924;SDS011;21130;51.728;8.748;2024-02-26T09:24:43;3.35;;;2.80;;
34924;SDS011;21130;51.728;8.748;2024-02-26T09:27:09;3.10;;;2.75;;
34924;SDS011;21130;51.728;8.748;2024-02-26T09:29:37;4.28;;;3.00;;
34924;SDS011;21130;51.728;8.748;2024-02-26T09:32:03;3.72;;;3.05;;
34924;SDS011;21130;51.728;8.748;2024-02-26T09:34:30;4.75;;;3.55;;
34924;SDS011;21130;51.728;8.748;2024-02-26T09:36:57;2.80;;;2.60;;
34924;SDS011;21130;51.728;8.748;2024-02-26T09:39:23;3.15;;;2.85;;
34924;SDS011;21130;51.728;8.748;2024-02-26T09:41:50;5.30;;;3.63;;
34924;SDS011;21130;51.728;8.748;2024-02-26T09:44:18;2.80;;;2.60;;
34924;SDS011;21130;51.728;8.748;2024-02-26T09:46:47;2.92;;;2.58;;
34924;SDS011;21130;51.728;8.748;2024-02-26T09:49:13;4.15;;;2.75;;
34924;SDS011;21130;51.728;8.748;2024-02-26T09:51:41;6.32;;;2.55;;
34924;SDS011;21130;51.728;8.748;2024-02-26T09:54:09;3.05;;;2.10;;
34924;SDS011;21130;51.728;8.748;2024-02-26T09:56:35;3.17;;;2.20;;
34924;SDS011;21130;51.728;8.748;2024-02-26T09:59:05;2.40;;;2.17;;
34924;SDS011;21130;51.728;8.748;2024-02-26T10:01:36;3.63;;;2.20;;
34924;SDS011;21130;51.728;8.748;2024-02-26T10:04:06;2.83;;;2.15;;
34924;SDS011;21130;51.728;8.748;2024-02-26T10:06:35;2.58;;;2.38;;
34924;SDS011;21130;51.728;8.748;2024-02-26T10:09:03;3.17;;;2.17;;
34924;SDS011;21130;51.728;8.748;2024-02-26T10:11:32;2.50;;;2.30;;
34924;SDS011;21130;51.728;8.748;2024-02-26T10:13:58;3.67;;;2.38;;
34924;SDS011;21130;51.728;8.748;2024-02-26T10:16:25;2.50;;;2.17;;
34924;SDS011;21130;51.728;8.748;2024-02-26T10:18:52;3.88;;;2.78;;
34924;SDS011;21130;51.728;8.748;2024-02-26T10:21:20;4.07;;;2.88;;
34924;SDS011;21130;51.728;8.748;2024-02-26T10:23:48;4.10;;;2.22;;
34924;SDS011;21130;51.728;8.748;2024-02-26T10:26:15;4.00;;;2.83;;
34924;SDS011;21130;51.728;8.748;2024-02-26T10:28:43;3.00;;;2.70;;
34924;SDS011;21130;51.728;8.748;2024-02-26T10:31:10;3.75;;;3.03;;
34924;SDS011;21130;51.728;8.748;2024-02-26T10:33:37;3.45;;;2.67;;
34924;SDS011;21130;51.728;8.748;2024-02-26T10:36:04;3.92;;;2.80;;
34924;SDS011;21130;51.728;8.748;2024-02-26T10:38:36;2.90;;;2.60;;
34924;SDS011;21130;51.728;8.748;2024-02-26T10:41:03;3.08;;;2.70;;
34924;SDS011;21130;51.728;8.748;2024-02-26T10:43:30;4.32;;;3.03;;
34924;SDS011;21130;51.728;8.748;2024-02-26T10:45:57;3.17;;;2.88;;
34924;SDS011;21130;51.728;8.748;2024-02-26T10:48:24;3.67;;;3.38;;
34924;SDS011;21130;51.728;8.748;2024-02-26T10:50:50;3.30;;;2.95;;
34924;SDS011;21130;51.728;8.748;2024-02-26T10:53:19;5.00;;;2.83;;
34924;SDS011;21130;51.728;8.748;2024-02-26T10:55:48;3.85;;;3.05;;
34924;SDS011;21130;51.728;8.748;2024-02-26T10:58:18;5.38;;;3.30;;
34924;SDS011;21130;51.728;8.748;2024-02-26T11:00:45;3.97;;;3.35;;
34924;SDS011;21130;51.728;8.748;2024-02-26T11:03:14;3.40;;;2.80;;
34924;SDS011;21130;51.728;8.748;2024-02-26T11:05:42;3.53;;;3.08;;
34924;SDS011;21130;51.728;8.748;2024-02-26T11:08:10;3.97;;;3.17;;
34924;SDS011;21130;51.728;8.748;2024-02-26T11:10:37;3.55;;;2.95;;
34924;SDS011;21130;51.728;8.748;2024-02-26T11:13:06;4.47;;;3.22;;
34924;SDS011;21130;51.728;8.748;2024-02-26T11:15:35;5.70;;;3.83;;
34924;SDS011;21130;51.728;8.748;2024-02-26T11:18:02;4.82;;;3.75;;
34924;SDS011;21130;51.728;8.748;2024-02-26T11:20:30;4.65;;;4.13;;
34924;SDS011;21130;51.728;8.748;2024-02-26T11:22:59;7.95;;;3.72;;
34924;SDS011;21130;51.728;8.748;2024-02-26T11:25:26;4.90;;;3.78;;
34924;SDS011;21130;51.728;8.748;2024-02-26T11:27:53;4.05;;;3.65;;
34924;SDS011;21130;51.728;8.748;2024-02-26T11:30:24;4.88;;;3.90;;
34924;SDS011;21130;51.728;8.748;2024-02-26T11:32:52;4.28;;;3.88;;
34924;SDS011;21130;51.728;8.748;2024-02-26T11:35:19;4.60;;;4.07;;
34924;SDS011;21130;51.728;8.748;2024-02-26T11:37:53;4.43;;;3.83;;
34924;SDS011;21130;51.728;8.748;2024-02-26T11:40:21;4.70;;;4.20;;
34924;SDS011;21130;51.728;8.748;2024-02-26T11:42:48;4.95;;;4.40;;
34924;SDS011;21130;51.728;8.748;2024-02-26T11:48:22;4.47;;;4.07;;
34924;SDS011;21130;51.728;8.748;2024-02-26T11:50:50;5.63;;;4.40;;
34924;SDS011;21130;51.728;8.748;2024-02-26T11:53:25;5.47;;;4.07;;
34924;SDS011;21130;51.728;8.748;2024-02-26T11:58:46;4.97;;;4.53;;
34924;SDS011;21130;51.728;8.748;2024-02-26T12:04:11;5.18;;;4.68;;
34924;SDS011;21130;51.728;8.748;2024-02-26T12:06:49;5.85;;;4.90;;
34924;SDS011;21130;51.728;8.748;2024-02-26T12:09:35;6.35;;;4.82;;
34924;SDS011;21130;51.728;8.748;2024-02-26T12:12:03;6.13;;;5.53;;
34924;SDS011;21130;51.728;8.748;2024-02-26T12:14:32;6.20;;;5.60;;
34924;SDS011;21130;51.728;8.748;2024-02-26T12:17:06;7.40;;;5.63;;
34924;SDS011;21130;51.728;8.748;2024-02-26T12:19:34;7.07;;;5.72;;
34924;SDS011;21130;51.728;8.748;2024-02-26T12:22:01;7.35;;;5.90;;
34924;SDS011;21130;51.728;8.748;2024-02-26T12:24:28;10.45;;;7.07;;
34924;SDS011;21130;51.728;8.748;2024-02-26T12:26:54;7.53;;;6.82;;
34924;SDS011;21130;51.728;8.748;2024-02-26T12:29:20;7.60;;;6.72;;
34924;SDS011;21130;51.728;8.748;2024-02-26T12:31:47;9.02;;;7.70;;
34924;SDS011;21130;51.728;8.748;2024-02-26T12:34:15;8.70;;;7.80;;
34924;SDS011;21130;51.728;8.748;2024-02-26T12:36:43;10.57;;;8.07;;
34924;SDS011;21130;51.728;8.748;2024-02-26T12:39:10;9.50;;;8.25;;
34924;SDS011;21130;51.728;8.748;2024-02-26T12:41:37;10.93;;;8.57;;
34924;SDS011;21130;51.728;8.748;2024-02-26T12:44:04;11.63;;;7.53;;
34924;SDS011;21130;51.728;8.748;2024-02-26T12:46:32;8.13;;;7.03;;
34924;SDS011;21130;51.728;8.748;2024-02-26T12:48:58;9.40;;;7.38;;
34924;SDS011;21130;51.728;8.748;2024-02-26T12:51:26;9.20;;;6.90;;
34924;SDS011;21130;51.728;8.748;2024-02-26T12:53:53;9.20;;;7.40;;
34924;SDS011;21130;51.728;8.748;2024-02-26T12:56:21;8.32;;;7.53;;
34924;SDS011;21130;51.728;8.748;2024-02-26T12:58:48;8.90;;;7.28;;
34924;SDS011;21130;51.728;8.748;2024-02-26T13:01:17;9.27;;;7.68;;
34924;SDS011;21130;51.728;8.748;2024-02-26T13:03:47;8.43;;;6.90;;
34924;SDS011;21130;51.728;8.748;2024-02-26T13:06:15;9.93;;;7.72;;
34924;SDS011;21130;51.728;8.748;2024-02-26T13:08:43;11.13;;;7.28;;
34924;SDS011;21130;51.728;8.748;2024-02-26T13:11:10;10.88;;;7.43;;
34924;SDS011;21130;51.728;8.748;2024-02-26T13:13:37;9.82;;;7.75;;
34924;SDS011;21130;51.728;8.748;2024-02-26T13:16:03;9.35;;;6.80;;
34924;SDS011;21130;51.728;8.748;2024-02-26T13:18:33;9.93;;;6.60;;
34924;SDS011;21130;51.728;8.748;2024-02-26T13:21:08;8.77;;;6.53;;
34924;SDS011;21130;51.728;8.748;2024-02-26T13:23:35;9.35;;;6.95;;
34924;SDS011;21130;51.728;8.748;2024-02-26T13:26:04;7.45;;;6.60;;
34924;SDS011;21130;51.728;8.748;2024-02-26T13:28:30;7.32;;;6.43;;
34924;SDS011;21130;51.728;8.748;2024-02-26T13:30:58;8.05;;;6.57;;
34924;SDS011;21130;51.728;8.748;2024-02-26T13:33:25;7.72;;;6.93;;
34924;SDS011;21130;51.728;8.748;2024-02-26T13:35:52;6.70;;;6.00;;
34924;SDS011;21130;51.728;8.748;2024-02-26T13:38:19;7.10;;;6.20;;
34924;SDS011;21130;51.728;8.748;2024-02-26T13:40:46;9.75;;;7.00;;
34924;SDS011;21130;51.728;8.748;2024-02-26T13:43:14;9.25;;;7.22;;
34924;SDS011;21130;51.728;8.748;2024-02-26T13:57:46;6.25;;;5.57;;
34924;SDS011;21130;51.728;8.748;2024-02-26T14:00:15;6.97;;;6.00;;
34924;SDS011;21130;51.728;8.748;2024-02-26T14:02:42;6.88;;;5.60;;
34924;SDS011;21130;51.728;8.748;2024-02-26T14:05:08;6.55;;;5.40;;
34924;SDS011;21130;51.728;8.748;2024-02-26T14:07:35;5.97;;;5.43;;
34924;SDS011;21130;51.728;8.748;2024-02-26T14:10:01;6.57;;;4.82;;
34924;SDS011;21130;51.728;8.748;2024-02-26T14:12:28;8.88;;;4.90;;
34924;SDS011;21130;51.728;8.748;2024-02-26T14:14:54;6.85;;;5.78;;
34924;SDS011;21130;51.728;8.748;2024-02-26T14:17:22;7.10;;;5.30;;
34924;SDS011;21130;51.728;8.748;2024-02-26T14:19:48;6.78;;;4.95;;
34924;SDS011;21130;51.728;8.748;2024-02-26T14:22:15;9.32;;;5.20;;
34924;SDS011;21130;51.728;8.748;2024-02-26T14:24:41;6.28;;;5.28;;
34924;SDS011;21130;51.728;8.748;2024-02-26T14:27:08;6.80;;;5.30;;
34924;SDS011;21130;51.728;8.748;2024-02-26T14:29:37;5.68;;;4.97;;
34924;SDS011;21130;51.728;8.748;2024-02-26T14:32:05;5.80;;;4.60;;
34924;SDS011;21130;51.728;8.748;2024-02-26T14:34:33;5.28;;;4.55;;
34924;SDS011;21130;51.728;8.748;2024-02-26T14:36:59;7.75;;;5.20;;
34924;SDS011;21130;51.728;8.748;2024-02-26T14:39:26;6.57;;;4.95;;
34924;SDS011;21130;51.728;8.748;2024-02-26T14:41:52;8.68;;;4.78;;
34924;SDS011;21130;51.728;8.748;2024-02-26T14:44:19;6.05;;;4.85;;
34924;SDS011;21130;51.728;8.748;2024-02-26T14:46:45;5.78;;;4.35;;
34924;SDS011;21130;51.728;8.748;2024-02-26T14:49:11;5.97;;;4.43;;
34924;SDS011;21130;51.728;8.748;2024-02-26T14:51:39;5.20;;;4.55;;
34924;SDS011;21130;51.728;8.748;2024-02-26T14:54:06;4.90;;;4.30;;
34924;SDS011;21130;51.728;8.748;2024-02-26T14:56:33;6.80;;;4.60;;
34924;SDS011;21130;51.728;8.748;2024-02-26T14:58:59;5.38;;;4.53;;
34924;SDS011;21130;51.728;8.748;2024-02-26T15:01:25;9.50;;;5.18;;
34924;SDS011;21130;51.728;8.748;2024-02-26T15:03:52;4.65;;;4.22;;
34924;SDS011;21130;51.728;8.748;2024-02-26T15:06:19;6.03;;;4.25;;
34924;SDS011;21130;51.728;8.748;2024-02-26T15:08:46;5.93;;;4.32;;
34924;SDS011;21130;51.728;8.748;2024-02-26T15:11:13;5.70;;;5.03;;
34924;SDS011;21130;51.728;8.748;2024-02-26T15:13:40;6.30;;;5.10;;
34924;SDS011;21130;51.728;8.748;2024-02-26T15:16:06;5.75;;;4.90;;